Time;durP1;ratioP1;P1;durP2;ratioP2;P2;SDS_P1;SDS_P2;PMS_P1;PMS_P2;Temp;Humidity;BMP_temperature;BMP_pressure;BME280_temperature;BME280_humidity;BME280_pressure;Samples;Min_cycle;Max_cycle;Signal;HPM_P1;HPM_P2
2022/12/08 00:01:06;;;;;;;13.10;3.70;;;;;;;1.62;80.29;99410.41;126601;1289;98010;-79
2022/12/08 00:04:10;;;;;;;12.00;4.00;;;;;;;1.58;79.90;99407.58;126594;1291;111263;-78
2022/12/08 00:10:34;;;;;;;5.00;2.30;;;;;;;1.48;79.83;99411.29;126537;1290;111023;-80
2022/12/08 00:13:36;;;;;;;7.60;2.60;;;;;;;1.41;79.80;99412.87;126486;1277;97979;-80
2022/12/08 00:16:39;;;;;;;5.80;2.50;;;;;;;1.37;79.96;99417.39;126492;1283;99044;-79
2022/12/08 00:19:42;;;;;;;4.80;2.10;;;;;;;1.39;79.93;99421.63;126496;1284;98580;-77
2022/12/08 00:22:45;;;;;;;5.70;2.10;;;;;;;1.43;79.87;99419.58;126488;1284;98086;-77
2022/12/08 00:25:48;;;;;;;4.90;2.30;;;;;;;1.49;80.02;99419.27;126392;1281;99318;-79
2022/12/08 00:28:51;;;;;;;4.10;2.40;;;;;;;1.54;79.69;99423.48;126428;1283;98029;-77
2022/12/08 00:31:54;;;;;;;5.00;2.30;;;;;;;1.53;79.58;99426.69;126581;1277;98853;-79
2022/12/08 00:34:57;;;;;;;5.10;2.30;;;;;;;1.48;79.65;99431.83;126635;1283;99123;-79
2022/12/08 00:37:59;;;;;;;3.50;2.60;;;;;;;1.41;79.57;99437.79;126507;1284;98402;-79
2022/12/08 00:41:02;;;;;;;3.30;2.00;;;;;;;1.34;79.39;99437.95;126414;1285;99160;-79
2022/12/08 00:44:06;;;;;;;5.50;2.30;;;;;;;1.27;79.50;99441.30;126523;1280;98009;-80
2022/12/08 00:47:08;;;;;;;4.00;2.50;;;;;;;1.19;79.37;99440.65;126562;1291;98004;-79
2022/12/08 00:50:11;;;;;;;6.20;3.00;;;;;;;1.09;79.49;99450.98;126613;1283;98393;-77
2022/12/08 00:53:14;;;;;;;5.50;3.00;;;;;;;1.01;79.56;99460.85;126480;1277;99038;-79
2022/12/08 00:56:17;;;;;;;6.00;3.30;;;;;;;0.94;79.53;99459.61;126573;1290;98127;-78
2022/12/08 00:59:20;;;;;;;4.80;3.10;;;;;;;0.86;79.62;99456.70;126409;1283;99522;-77
2022/12/08 01:02:23;;;;;;;7.20;3.20;;;;;;;0.83;79.84;99458.69;126804;1285;98524;-77
2022/12/08 01:05:26;;;;;;;5.90;2.50;;;;;;;0.84;79.68;99459.30;126553;1277;99160;-78
2022/12/08 01:08:29;;;;;;;5.80;2.80;;;;;;;0.88;79.83;99466.89;126659;1278;98059;-78
2022/12/08 01:11:32;;;;;;;6.30;2.60;;;;;;;0.91;79.47;99466.70;126441;1278;98025;-77
2022/12/08 01:14:36;;;;;;;4.50;2.60;;;;;;;0.91;79.49;99469.11;126635;1283;98015;-80
2022/12/08 01:17:39;;;;;;;3.60;2.30;;;;;;;0.90;79.53;99472.83;126438;1289;97982;-80
2022/12/08 01:20:42;;;;;;;7.20;2.60;;;;;;;0.87;79.24;99476.92;126490;1277;98387;-76
2022/12/08 01:23:45;;;;;;;4.30;2.70;;;;;;;0.82;79.31;99479.44;126356;1285;110178;-79
2022/12/08 01:26:48;;;;;;;4.90;2.10;;;;;;;0.75;79.37;99480.02;126596;1285;98752;-78
2022/12/08 01:29:51;;;;;;;4.20;2.40;;;;;;;0.70;79.32;99483.90;126551;1283;101493;-77
2022/12/08 01:32:53;;;;;;;3.60;2.20;;;;;;;0.66;79.29;99482.45;126658;1291;98604;-77
2022/12/08 01:36:01;;;;;;;5.60;2.50;;;;;;;0.61;79.30;99483.70;126593;1284;99154;-79
2022/12/08 01:39:06;;;;;;;4.40;2.60;;;;;;;0.56;79.23;99486.50;126603;1281;110869;-79
2022/12/08 01:42:24;;;;;;;3.60;2.30;;;;;;;0.50;79.22;99486.52;126804;1290;111039;-79
2022/12/08 01:45:28;;;;;;;6.80;3.00;;;;;;;0.44;79.34;99486.64;126464;1291;111520;-78
2022/12/08 01:48:31;;;;;;;6.00;2.80;;;;;;;0.39;79.43;99490.10;126603;1284;111059;-80
2022/12/08 01:51:40;;;;;;;7.00;2.60;;;;;;;0.39;79.46;99496.93;126606;1284;99158;-78
2022/12/08 01:54:46;;;;;;;6.50;2.60;;;;;;;0.43;79.49;99501.23;126497;1284;109944;-79
2022/12/08 01:57:52;;;;;;;5.00;2.50;;;;;;;0.47;79.32;99496.41;126493;1280;111259;-77
2022/12/08 02:00:55;;;;;;;5.50;3.00;;;;;;;0.49;79.41;99496.96;126422;1283;111313;-76
2022/12/08 02:03:59;;;;;;;5.70;3.00;;;;;;;0.48;79.36;99496.89;126545;1291;98225;-79
2022/12/08 02:07:03;;;;;;;4.60;2.80;;;;;;;0.48;79.29;99500.52;126446;1283;111188;-76
2022/12/08 02:10:09;;;;;;;6.00;2.90;;;;;;;0.44;79.41;99503.59;126579;1283;112097;-78
2022/12/08 02:13:16;;;;;;;6.30;3.20;;;;;;;0.41;79.45;99500.66;126556;1280;111762;-77
2022/12/08 02:16:32;;;;;;;5.80;3.10;;;;;;;0.39;79.40;99500.61;126532;1283;111266;-77
2022/12/08 02:20:01;;;;;;;6.00;3.70;;;;;;;0.36;79.40;99498.52;126609;1284;111342;-77
2022/12/08 02:23:12;;;;;;;6.10;3.50;;;;;;;0.34;79.39;99499.92;126428;1291;111085;-77
2022/12/08 02:26:54;;;;;;;7.30;3.70;;;;;;;0.29;79.62;99495.67;126492;1291;110072;-77
2022/12/08 02:30:21;;;;;;;13.20;4.90;;;;;;;0.26;79.62;99493.46;126474;1283;110371;-76
2022/12/08 02:33:50;;;;;;;7.70;3.10;;;;;;;0.27;79.71;99493.77;126588;1285;111046;-79
2022/12/08 02:37:04;;;;;;;6.50;3.70;;;;;;;0.29;79.41;99492.20;126592;1285;111209;-78
2022/12/08 02:40:17;;;;;;;6.90;3.10;;;;;;;0.31;79.47;99499.23;126701;1283;111205;-78
2022/12/08 02:43:25;;;;;;;;;;;;;;;0.32;79.45;99504.21;126654;1283;111222;-78
2022/12/08 02:46:34;;;;;;;7.50;4.40;;;;;;;0.35;79.52;99505.80;126558;1291;110832;-78
2022/12/08 02:49:37;;;;;;;8.20;4.80;;;;;;;0.31;79.57;99506.90;126509;1285;111153;-78
2022/12/08 02:52:42;;;;;;;8.20;4.70;;;;;;;0.30;79.64;99502.30;126518;1285;99171;-78
2022/12/08 02:55:55;;;;;;;10.80;5.00;;;;;;;0.28;79.70;99500.30;126599;1283;109676;-79
2022/12/08 02:59:11;;;;;;;9.10;5.20;;;;;;;0.26;79.66;99506.76;126491;1291;111214;-80
2022/12/08 03:02:30;;;;;;;11.00;6.30;;;;;;;0.23;79.66;99503.27;126504;1281;111212;-78
2022/12/08 03:05:50;;;;;;;10.50;6.10;;;;;;;0.21;79.77;99507.09;126503;1291;110386;-80
2022/12/08 03:09:02;;;;;;;12.90;6.70;;;;;;;0.20;79.85;99509.44;126550;1285;110301;-79
2022/12/08 03:12:13;;;;;;;13.40;6.90;;;;;;;0.20;79.94;99507.87;126503;1291;111243;-79
2022/12/08 03:15:19;;;;;;;12.60;7.40;;;;;;;0.25;80.11;99509.31;126538;1283;111220;-79
2022/12/08 03:18:28;;;;;;;10.60;5.90;;;;;;;0.32;80.13;99511.73;126590;1300;111153;-79
2022/12/08 03:21:33;;;;;;;12.00;6.60;;;;;;;0.43;80.10;99513.67;126568;1277;110939;-79
2022/12/08 03:24:37;;;;;;;11.10;6.40;;;;;;;0.52;80.15;99514.10;126519;1290;112927;-79
2022/12/08 03:27:41;;;;;;;11.30;6.60;;;;;;;0.59;80.02;99516.23;126585;1291;111251;-79
2022/12/08 03:30:47;;;;;;;11.60;6.20;;;;;;;0.62;79.98;99515.11;126503;1294;111747;-79
2022/12/08 03:33:54;;;;;;;10.40;6.40;;;;;;;0.63;79.94;99521.34;126620;1277;111264;-78
2022/12/08 03:36:59;;;;;;;13.30;7.10;;;;;;;0.63;79.96;99527.85;126508;1291;110246;-77
2022/12/08 03:40:02;;;;;;;13.10;6.70;;;;;;;0.61;79.94;99525.86;126521;1281;111295;-78
2022/12/08 03:43:05;;;;;;;12.90;6.50;;;;;;;0.59;79.96;99527.02;126528;1290;98022;-79
2022/12/08 03:46:07;;;;;;;11.50;7.10;;;;;;;0.59;80.13;99528.79;126618;1291;98038;-81
2022/12/08 03:49:10;;;;;;;12.90;6.60;;;;;;;0.59;80.03;99530.55;126570;1301;98518;-78
2022/12/08 03:52:13;;;;;;;15.30;7.20;;;;;;;0.54;80.05;99530.20;126623;1277;98746;-78
2022/12/08 03:55:16;;;;;;;10.90;6.60;;;;;;;0.49;80.04;99530.55;126517;1284;99145;-82
2022/12/08 03:58:19;;;;;;;9.00;5.60;;;;;;;0.49;80.01;99531.23;126757;1300;98011;-81
2022/12/08 04:01:22;;;;;;;10.90;6.40;;;;;;;0.51;80.11;99533.73;126673;1280;99193;-80
2022/12/08 04:04:25;;;;;;;11.00;6.20;;;;;;;0.55;80.04;99538.70;126704;1276;99105;-80
2022/12/08 04:07:28;;;;;;;8.40;5.60;;;;;;;0.56;80.00;99537.02;126725;1283;99168;-81
2022/12/08 04:10:31;;;;;;;9.30;5.50;;;;;;;0.57;79.93;99538.52;126724;1283;98090;-82
2022/12/08 04:13:35;;;;;;;11.30;6.10;;;;;;;0.57;79.97;99536.61;126665;1287;98002;-82
2022/12/08 04:16:38;;;;;;;18.90;11.80;;;;;;;0.55;79.96;99540.08;126633;1291;110267;-79
2022/12/08 04:19:40;;;;;;;16.10;8.80;;;;;;;0.53;79.91;99541.84;126504;1283;98033;-80
2022/12/08 04:22:43;;;;;;;12.70;7.40;;;;;;;0.50;80.06;99546.73;126496;1277;99065;-81
2022/12/08 04:25:46;;;;;;;11.00;6.60;;;;;;;0.47;80.02;99552.71;126596;1284;98422;-81
2022/12/08 04:28:49;;;;;;;12.90;7.50;;;;;;;0.45;80.08;99561.66;126526;1284;98459;-79
2022/12/08 04:31:51;;;;;;;13.80;7.80;;;;;;;0.40;80.08;99561.24;126465;1284;98684;-81
2022/12/08 04:34:54;;;;;;;15.10;7.90;;;;;;;0.40;80.06;99556.38;126515;1284;98796;-81
2022/12/08 04:37:57;;;;;;;22.30;13.20;;;;;;;0.41;80.07;99553.70;126612;1283;99110;-81
2022/12/08 04:41:00;;;;;;;11.50;6.80;;;;;;;0.44;80.16;99555.95;126644;1277;98013;-79
2022/12/08 04:44:03;;;;;;;13.00;7.00;;;;;;;0.46;80.14;99555.95;126603;1291;99181;-79
2022/12/08 04:47:05;;;;;;;12.30;6.60;;;;;;;0.48;80.08;99557.40;126491;1293;99311;-81
2022/12/08 04:50:10;;;;;;;11.50;6.70;;;;;;;0.48;80.03;99556.33;126569;1291;98145;-80
2022/12/08 04:53:13;;;;;;;10.50;6.60;;;;;;;0.49;80.05;99556.60;126609;1291;98081;-82
2022/12/08 04:56:18;;;;;;;35.00;19.50;;;;;;;0.49;79.97;99554.00;126523;1293;111190;-79
2022/12/08 04:59:21;;;;;;;20.00;11.20;;;;;;;0.48;80.06;99546.36;126504;1284;110704;-83
2022/12/08 05:02:24;;;;;;;17.00;9.50;;;;;;;0.46;80.15;99539.88;126618;1291;98654;-82
2022/12/08 05:05:26;;;;;;;12.00;7.30;;;;;;;0.42;79.96;99545.02;126557;1291;99193;-82
2022/12/08 05:08:30;;;;;;;12.10;6.60;;;;;;;0.39;80.00;99550.33;126601;1299;98440;-82
2022/12/08 05:11:32;;;;;;;14.60;7.10;;;;;;;0.33;80.21;99555.42;126498;1284;99472;-80
2022/12/08 05:14:35;;;;;;;12.00;6.70;;;;;;;0.28;80.02;99563.29;126485;1277;99149;-80
2022/12/08 05:17:38;;;;;;;15.10;7.20;;;;;;;0.26;80.09;99564.14;126620;1276;98781;-81
2022/12/08 05:20:41;;;;;;;16.50;8.50;;;;;;;0.28;80.25;99562.45;126567;1277;97989;-78
2022/12/08 05:23:43;;;;;;;18.10;8.80;;;;;;;0.30;80.37;99564.23;126658;1284;99059;-76
2022/12/08 05:26:46;;;;;;;23.10;13.00;;;;;;;0.30;80.15;99565.75;126736;1282;98549;-80
2022/12/08 05:29:49;;;;;;;40.10;22.40;;;;;;;0.30;80.19;99571.02;126827;1299;98187;-80
2022/12/08 05:32:52;;;;;;;30.50;17.30;;;;;;;0.28;80.03;99576.09;126831;1291;98083;-79
2022/12/08 05:35:55;;;;;;;17.20;9.00;;;;;;;0.25;80.07;99581.89;126834;1285;97974;-78
2022/12/08 05:38:58;;;;;;;16.40;8.40;;;;;;;0.21;80.14;99580.55;126921;1285;98019;-78
2022/12/08 05:42:00;;;;;;;15.80;8.30;;;;;;;0.16;80.12;99583.03;127943;1277;98631;-83
2022/12/08 05:45:04;;;;;;;22.00;14.30;;;;;;;0.10;80.12;99576.91;128005;1277;97983;-80
2022/12/08 05:48:07;;;;;;;17.70;8.50;;;;;;;0.05;80.22;99574.10;128306;1283;108133;-79
2022/12/08 05:51:17;;;;;;;13.60;7.40;;;;;;;0.00;80.28;99570.92;128222;1291;107784;-79
2022/12/08 05:54:20;;;;;;;15.00;7.10;;;;;;;0.01;80.46;99569.65;128264;1283;107467;-80
2022/12/08 05:57:22;;;;;;;12.40;6.40;;;;;;;0.07;80.26;99572.81;128025;1291;97946;-79
2022/12/08 06:00:25;;;;;;;11.30;6.60;;;;;;;0.11;79.95;99574.27;128000;1280;97995;-78
2022/12/08 06:03:28;;;;;;;27.00;14.30;;;;;;;0.15;80.25;99576.95;128257;1284;99249;-82
2022/12/08 06:06:33;;;;;;;19.00;10.30;;;;;;;0.15;79.97;99581.64;128035;1279;98765;-78
2022/12/08 06:09:36;;;;;;;14.00;7.70;;;;;;;0.15;79.96;99581.32;128141;1284;108077;-78
2022/12/08 06:12:39;;;;;;;17.50;9.20;;;;;;;0.12;79.95;99588.33;127576;1284;97964;-78
2022/12/08 06:15:42;;;;;;;12.90;7.40;;;;;;;0.11;79.94;99592.82;127150;1291;107667;-73
2022/12/08 06:18:45;;;;;;;13.50;7.50;;;;;;;0.08;79.93;99598.58;126704;1291;107550;-76
2022/12/08 06:21:48;;;;;;;14.10;7.50;;;;;;;0.01;79.83;99603.23;126712;1283;107614;-75
2022/12/08 06:24:51;;;;;;;15.30;8.50;;;;;;;-0.05;79.80;99599.95;126678;1280;98019;-74
2022/12/08 06:27:54;;;;;;;14.90;8.10;;;;;;;-0.11;79.81;99597.59;126625;1284;98806;-75
2022/12/08 06:30:58;;;;;;;14.40;7.30;;;;;;;-0.21;79.57;99603.98;126689;1283;98523;-73
2022/12/08 06:34:01;;;;;;;53.50;30.20;;;;;;;-0.33;79.59;99613.19;126705;1288;107639;-74
2022/12/08 06:37:03;;;;;;;47.80;28.00;;;;;;;-0.39;79.67;99622.60;126630;1281;107492;-74
2022/12/08 06:40:09;;;;;;;46.80;23.80;;;;;;;-0.46;79.74;99621.30;126580;1277;97915;-74
2022/12/08 06:43:12;;;;;;;58.00;28.60;;;;;;;-0.51;79.83;99626.56;126661;1283;107623;-74
2022/12/08 06:46:17;;;;;;;46.40;23.50;;;;;;;-0.58;79.61;99625.92;126511;1291;98382;-73
2022/12/08 06:49:20;;;;;;;31.90;16.70;;;;;;;-0.59;79.66;99625.13;126429;1291;108408;-73
2022/12/08 06:52:22;;;;;;;20.00;11.70;;;;;;;-0.55;79.65;99625.92;126634;1284;107606;-73
2022/12/08 06:55:25;;;;;;;16.80;9.00;;;;;;;-0.51;79.67;99625.13;126441;1277;99081;-74
2022/12/08 06:58:28;;;;;;;15.20;8.30;;;;;;;-0.50;79.50;99625.59;126600;1277;98021;-77
2022/12/08 07:01:31;;;;;;;14.50;8.00;;;;;;;-0.54;79.43;99630.58;126657;1284;97976;-80
2022/12/08 07:04:34;;;;;;;13.40;7.70;;;;;;;-0.55;79.63;99637.45;126589;1277;99165;-80
2022/12/08 07:07:36;;;;;;;12.70;7.50;;;;;;;-0.56;79.68;99641.73;126449;1283;98013;-75
2022/12/08 07:10:39;;;;;;;12.70;6.90;;;;;;;-0.58;79.80;99639.53;126532;1285;98048;-77
2022/12/08 07:13:42;;;;;;;12.50;7.30;;;;;;;-0.58;79.56;99631.17;126506;1290;98098;-76
2022/12/08 07:16:45;;;;;;;12.90;7.10;;;;;;;-0.63;79.32;99633.73;126605;1284;98083;-76
2022/12/08 07:19:48;;;;;;;13.50;7.20;;;;;;;-0.82;79.04;99634.92;126870;1284;98035;-77
2022/12/08 07:22:51;;;;;;;27.70;14.50;;;;;;;-0.88;79.46;99634.81;126649;1290;98008;-79
2022/12/08 07:25:54;;;;;;;17.50;9.90;;;;;;;-0.87;79.60;99637.51;126773;1277;98447;-77
2022/12/08 07:28:58;;;;;;;16.50;8.30;;;;;;;-0.85;79.73;99639.16;127164;1291;97979;-79
2022/12/08 07:32:01;;;;;;;17.90;9.00;;;;;;;-0.85;79.49;99635.65;126934;1280;107728;-78
2022/12/08 07:35:06;;;;;;;19.80;9.00;;;;;;;-0.84;79.69;99638.95;126817;1284;99174;-80
2022/12/08 07:38:11;;;;;;;22.00;11.60;;;;;;;-0.81;79.55;99638.58;126789;1291;107548;-83
2022/12/08 07:41:14;;;;;;;19.90;10.80;;;;;;;-0.80;79.40;99636.23;126624;1285;107769;-78
2022/12/08 07:44:17;;;;;;;20.60;10.40;;;;;;;-0.74;79.40;99639.17;126756;1285;107531;-80
2022/12/08 07:47:20;;;;;;;20.60;10.50;;;;;;;-0.68;79.45;99642.96;126660;1280;98772;-79
2022/12/08 07:50:23;;;;;;;16.20;8.70;;;;;;;-0.57;79.46;99645.46;126703;1284;98486;-78
2022/12/08 07:53:26;;;;;;;11.90;6.80;;;;;;;-0.49;79.24;99650.00;126633;1283;98765;-79
2022/12/08 07:56:29;;;;;;;28.90;13.50;;;;;;;-0.45;79.18;99647.67;126604;1291;98433;-77
2022/12/08 07:59:31;;;;;;;66.50;31.50;;;;;;;-0.43;79.36;99650.97;126787;1284;98092;-81
2022/12/08 08:02:34;;;;;;;69.30;33.30;;;;;;;-0.43;79.21;99651.70;126656;1284;98071;-79
2022/12/08 08:05:37;;;;;;;67.20;26.10;;;;;;;-0.44;79.35;99647.91;126759;1283;98160;-81
2022/12/08 08:08:40;;;;;;;64.10;22.60;;;;;;;-0.42;79.35;99655.15;126977;1278;99145;-83
2022/12/08 08:11:43;;;;;;;67.30;22.60;;;;;;;-0.41;79.67;99651.59;126680;1283;99123;-82
2022/12/08 08:14:46;;;;;;;49.10;19.90;;;;;;;-0.37;79.69;99646.45;126709;1285;98339;-83
2022/12/08 08:17:50;;;;;;;63.80;25.80;;;;;;;-0.32;79.90;99645.95;126717;1291;99150;-78
2022/12/08 08:20:53;;;;;;;75.20;28.40;;;;;;;-0.26;80.01;99647.80;126790;1301;105975;-87
2022/12/08 08:23:56;;;;;;;70.90;28.30;;;;;;;-0.21;80.06;99647.52;126617;1284;98685;-83
2022/12/08 08:26:59;;;;;;;64.40;25.50;;;;;;;-0.14;80.20;99645.48;126806;1289;98580;-83
2022/12/08 08:30:01;;;;;;;69.50;27.40;;;;;;;-0.07;80.26;99643.79;126651;1284;98111;-82
2022/12/08 08:33:05;;;;;;;63.00;27.90;;;;;;;0.07;80.54;99639.58;126747;1291;98838;-81
2022/12/08 08:36:09;;;;;;;66.30;30.10;;;;;;;0.26;80.56;99636.54;126658;1284;99175;-81
2022/12/08 08:39:13;;;;;;;92.20;34.80;;;;;;;0.48;80.53;99638.76;126580;1291;107604;-81
2022/12/08 08:42:16;;;;;;;72.90;31.40;;;;;;;0.71;80.63;99645.09;126617;1281;107553;-83
2022/12/08 08:45:18;;;;;;;73.50;30.70;;;;;;;0.97;80.65;99650.48;126769;1291;99149;-84
2022/12/08 08:48:21;;;;;;;49.20;22.80;;;;;;;1.19;80.39;99653.98;126726;1291;99152;-83
2022/12/08 08:51:24;;;;;;;45.20;22.00;;;;;;;1.38;80.52;99661.61;126813;1278;98409;-83
2022/12/08 08:54:28;;;;;;;44.40;22.10;;;;;;;1.52;80.47;99659.90;126714;1284;98047;-85
2022/12/08 08:57:31;;;;;;;57.20;25.10;;;;;;;1.65;80.59;99666.30;126675;1293;107646;-82
2022/12/08 09:00:34;;;;;;;139.00;45.60;;;;;;;1.77;80.64;99662.13;126663;1294;98079;-87
2022/12/08 09:03:37;;;;;;;131.60;46.10;;;;;;;1.87;80.61;99660.88;126737;1291;98668;-81
2022/12/08 09:06:41;;;;;;;93.80;35.20;;;;;;;1.94;80.59;99655.80;126682;1280;98087;-83
2022/12/08 09:09:44;;;;;;;97.20;37.20;;;;;;;2.07;80.60;99654.32;127032;1292;107535;-82
2022/12/08 09:12:47;;;;;;;125.10;42.60;;;;;;;2.17;80.45;99652.73;127059;1285;99089;-82
2022/12/08 09:15:50;;;;;;;112.30;38.40;;;;;;;2.23;80.60;99646.33;126994;1284;99168;-86
2022/12/08 09:18:52;;;;;;;39.00;18.40;;;;;;;2.32;80.65;99642.62;126979;1293;98081;-80
2022/12/08 09:21:55;;;;;;;31.30;16.00;;;;;;;2.42;80.78;99640.30;126841;1286;99159;-85
2022/12/08 09:24:58;;;;;;;40.20;19.30;;;;;;;2.57;80.82;99635.70;127022;1290;98434;-85
2022/12/08 09:28:01;;;;;;;38.80;19.50;;;;;;;2.73;80.86;99631.83;127515;1277;98003;-84
2022/12/08 09:31:04;;;;;;;32.90;17.60;;;;;;;2.86;80.80;99625.55;127434;1285;99123;-84
2022/12/08 09:34:07;;;;;;;29.80;18.30;;;;;;;3.00;80.80;99623.89;127484;1285;98015;-84
2022/12/08 09:37:10;;;;;;;28.10;17.30;;;;;;;3.10;80.54;99620.48;126794;1280;98011;-84
2022/12/08 09:40:18;;;;;;;29.30;17.90;;;;;;;3.12;80.55;99615.02;126862;1291;98000;-83
2022/12/08 09:43:41;;;;;;;30.30;17.90;;;;;;;3.11;80.49;99611.45;127047;1284;107578;-84
2022/12/08 09:46:50;;;;;;;29.70;18.80;;;;;;;3.09;80.62;99605.14;127039;1280;106477;-85
2022/12/08 09:50:01;;;;;;;28.20;17.50;;;;;;;3.05;80.54;99602.12;127077;1292;107431;-83
2022/12/08 09:53:08;;;;;;;36.30;20.40;;;;;;;2.98;80.75;99603.36;127067;1301;107338;-85
2022/12/08 09:56:14;;;;;;;29.70;16.60;;;;;;;2.92;80.90;99602.23;126858;1294;107594;-85
2022/12/08 09:59:24;;;;;;;34.40;18.80;;;;;;;2.87;80.94;99597.40;126868;1290;107624;-78
2022/12/08 10:02:29;;;;;;;25.70;15.00;;;;;;;2.83;81.09;99595.73;126780;1290;107397;-81
2022/12/08 10:05:36;;;;;;;36.10;19.60;;;;;;;2.88;80.92;99596.77;127122;1284;107518;-84
2022/12/08 10:08:47;;;;;;;34.60;19.90;;;;;;;2.96;81.04;99587.87;126945;1282;107363;-83
2022/12/08 10:11:56;;;;;;;39.70;22.90;;;;;;;3.03;81.04;99587.88;127042;1290;108490;-81
2022/12/08 10:15:09;;;;;;;44.90;26.20;;;;;;;3.06;80.83;99589.91;126699;1291;107325;-81
2022/12/08 10:18:16;;;;;;;45.00;26.10;;;;;;;3.13;81.02;99588.64;126528;1297;108993;-84
2022/12/08 10:21:29;;;;;;;32.00;19.40;;;;;;;3.21;80.89;99593.66;126683;1290;107438;-81
2022/12/08 10:24:38;;;;;;;30.20;17.60;;;;;;;3.24;80.97;99587.09;126620;1299;107221;-85
2022/12/08 10:27:42;;;;;;;38.70;21.30;;;;;;;3.28;80.93;99584.46;126629;1282;107515;-83
2022/12/08 10:30:45;;;;;;;44.00;23.60;;;;;;;3.26;80.88;99580.09;126645;1282;99060;-81
2022/12/08 10:33:51;;;;;;;29.40;17.60;;;;;;;3.19;80.78;99575.33;126578;1295;97971;-82
2022/12/08 10:36:57;;;;;;;30.80;18.90;;;;;;;3.10;80.97;99572.52;126592;1291;107616;-83
2022/12/08 10:40:02;;;;;;;38.80;22.20;;;;;;;3.07;80.88;99571.56;126674;1298;107449;-83
2022/12/08 10:43:13;;;;;;;35.20;19.70;;;;;;;3.06;80.97;99563.02;126680;1290;106453;-79
2022/12/08 10:46:19;;;;;;;53.40;24.30;;;;;;;3.06;81.00;99564.60;126707;1283;108058;-82
2022/12/08 10:49:26;;;;;;;88.60;33.40;;;;;;;3.04;80.71;99558.41;126767;1283;107619;-79
2022/12/08 10:52:29;;;;;;;79.30;34.20;;;;;;;3.01;80.75;99557.58;126684;1287;107637;-81
2022/12/08 10:55:41;;;;;;;109.00;48.10;;;;;;;2.96;80.74;99558.02;126719;1282;98069;-80
2022/12/08 10:58:45;;;;;;;75.70;36.20;;;;;;;2.91;80.70;99554.71;126656;1295;106263;-79
2022/12/08 11:01:50;;;;;;;55.60;30.60;;;;;;;2.85;80.88;99556.27;126756;1294;107651;-81
2022/12/08 11:04:59;;;;;;;55.30;30.00;;;;;;;2.79;81.16;99551.30;126817;1284;107229;-82
2022/12/08 11:08:03;;;;;;;101.00;41.90;;;;;;;2.72;80.84;99551.77;126827;1280;107596;-84
2022/12/08 11:11:06;;;;;;;84.60;34.80;;;;;;;2.66;80.97;99547.37;126804;1298;107595;-78
2022/12/08 11:14:17;;;;;;;46.60;25.50;;;;;;;2.62;81.00;99545.23;126689;1291;97989;-81
2022/12/08 11:17:26;;;;;;;38.60;23.60;;;;;;;2.61;80.98;99544.75;127381;1280;107659;-81
2022/12/08 11:20:39;;;;;;;53.50;31.70;;;;;;;2.65;81.17;99544.59;126757;1282;107517;-81
2022/12/08 11:23:45;;;;;;;56.40;31.60;;;;;;;2.76;81.35;99545.17;126972;1281;107637;-81
2022/12/08 11:26:53;;;;;;;50.10;30.40;;;;;;;2.87;81.50;99546.98;126822;1282;107314;-84
2022/12/08 11:29:56;;;;;;;45.20;27.10;;;;;;;2.96;81.36;99544.52;126734;1282;106523;-84
2022/12/08 11:33:05;;;;;;;38.90;23.70;;;;;;;3.03;81.17;99546.58;126875;1284;107197;-82
2022/12/08 11:36:14;;;;;;;40.90;24.40;;;;;;;3.08;81.15;99541.36;126840;1288;108278;-83
2022/12/08 11:39:17;;;;;;;46.30;28.70;;;;;;;3.12;81.08;99540.02;126837;1291;107626;-82
2022/12/08 11:42:24;;;;;;;44.70;26.70;;;;;;;3.16;81.03;99535.33;126673;1287;107577;-81
2022/12/08 11:45:33;;;;;;;43.20;24.10;;;;;;;3.17;81.04;99529.27;126739;1282;107338;-81
2022/12/08 11:48:42;;;;;;;39.90;22.40;;;;;;;3.18;81.09;99523.56;126628;1291;106703;-77
2022/12/08 11:51:52;;;;;;;34.40;19.00;;;;;;;3.25;81.12;99522.35;126481;1290;105470;-81
2022/12/08 11:55:02;;;;;;;34.30;20.30;;;;;;;3.34;81.07;99513.83;126746;1282;107557;-82
2022/12/08 11:58:18;;;;;;;33.10;20.70;;;;;;;3.44;81.26;99505.81;126809;1295;107612;-79
2022/12/08 12:01:22;;;;;;;34.40;21.00;;;;;;;3.53;80.90;99504.67;127221;1282;107621;-81
2022/12/08 12:04:31;;;;;;;35.20;22.80;;;;;;;3.60;81.05;99507.48;126781;1288;107617;-80
2022/12/08 12:07:54;;;;;;;35.70;21.50;;;;;;;3.60;80.93;99509.77;126820;1282;107423;-84
2022/12/08 12:11:09;;;;;;;36.10;21.60;;;;;;;3.62;80.98;99513.83;126746;1291;108020;-81
2022/12/08 12:14:27;;;;;;;32.40;20.80;;;;;;;3.64;80.88;99505.40;126640;1280;105336;-82
2022/12/08 12:17:40;;;;;;;33.20;21.00;;;;;;;3.64;80.85;99506.34;126843;1291;108290;-83
2022/12/08 12:20:50;;;;;;;33.90;20.50;;;;;;;3.60;80.91;99506.41;126768;1287;107325;-80
2022/12/08 12:23:56;;;;;;;35.00;21.20;;;;;;;3.56;80.82;99501.33;126521;1282;106659;-78
2022/12/08 12:27:04;;;;;;;34.70;21.70;;;;;;;3.50;80.84;99503.90;126610;1280;107464;-82
2022/12/08 12:30:17;;;;;;;35.70;19.90;;;;;;;3.45;80.88;99500.65;126605;1282;107560;-81
2022/12/08 12:33:21;;;;;;;33.60;18.20;;;;;;;3.40;80.97;99499.09;126739;1282;107119;-81
2022/12/08 12:36:25;;;;;;;37.20;20.90;;;;;;;3.40;80.80;99496.98;126821;1282;108042;-80
2022/12/08 12:39:30;;;;;;;40.20;24.50;;;;;;;3.39;80.85;99492.84;126803;1290;108088;-81
2022/12/08 12:42:38;;;;;;;42.80;25.60;;;;;;;3.40;80.79;99491.55;126632;1282;107524;-80
2022/12/08 12:45:42;;;;;;;37.20;23.00;;;;;;;3.41;80.88;99484.64;126816;1280;107592;-80
2022/12/08 12:48:45;;;;;;;33.90;21.00;;;;;;;3.42;80.94;99483.14;126621;1281;107615;-79
2022/12/08 12:51:54;;;;;;;36.90;23.10;;;;;;;3.43;80.99;99481.83;126722;1290;98015;-80
2022/12/08 12:55:23;;;;;;;39.10;21.90;;;;;;;3.42;80.92;99474.37;126749;1288;107116;-80
2022/12/08 12:58:37;;;;;;;39.80;22.40;;;;;;;3.42;81.01;99470.43;126559;1290;107622;-80
2022/12/08 13:01:54;;;;;;;34.20;19.70;;;;;;;3.42;80.89;99469.05;126725;1288;105606;-80
2022/12/08 13:05:01;;;;;;;34.80;18.60;;;;;;;3.42;80.97;99464.17;126619;1295;107516;-78
2022/12/08 13:08:15;;;;;;;32.70;18.00;;;;;;;3.42;81.00;99458.55;126619;1292;107292;-78
2022/12/08 13:11:18;;;;;;;28.80;15.60;;;;;;;3.45;81.23;99456.32;126473;1291;106846;-78
2022/12/08 13:14:29;;;;;;;30.10;15.90;;;;;;;3.51;81.12;99454.58;126509;1287;107309;-78
2022/12/08 13:17:35;;;;;;;27.00;15.70;;;;;;;3.58;81.06;99452.81;126748;1289;107648;-78
2022/12/08 13:20:45;;;;;;;28.60;17.00;;;;;;;3.63;80.99;99451.00;126789;1291;107446;-79
2022/12/08 13:23:49;;;;;;;26.80;16.30;;;;;;;3.66;81.04;99450.52;126745;1282;137021;-82
2022/12/08 13:27:33;;;;;;;27.60;17.10;;;;;;;3.67;81.06;99448.50;126783;1288;108328;-80
2022/12/08 13:30:45;;;;;;;27.30;15.70;;;;;;;3.65;81.04;99448.68;126696;1297;107687;-78
2022/12/08 13:33:47;;;;;;;25.60;16.70;;;;;;;3.64;81.04;99452.11;126784;1295;106358;-81
2022/12/08 13:36:59;;;;;;;26.40;15.50;;;;;;;3.62;81.02;99452.63;126713;1294;99117;-79
2022/12/08 13:40:08;;;;;;;30.70;18.50;;;;;;;3.58;80.90;99451.89;126682;1288;105655;-79
2022/12/08 13:43:25;;;;;;;27.00;15.40;;;;;;;3.54;80.93;99450.80;126878;1290;106173;-78
2022/12/08 13:46:37;;;;;;;20.90;12.80;;;;;;;3.53;80.96;99448.61;126826;1290;107721;-78
2022/12/08 13:49:52;;;;;;;31.00;18.20;;;;;;;3.54;81.00;99451.70;126721;1289;107422;-80
2022/12/08 13:52:59;;;;;;;32.70;18.90;;;;;;;3.56;80.89;99446.13;126846;1287;105492;-78
2022/12/08 13:56:02;;;;;;;26.80;15.80;;;;;;;3.56;80.64;99443.48;126710;1282;105449;-82
2022/12/08 13:59:26;;;;;;;25.20;15.50;;;;;;;3.53;80.75;99448.41;126761;1294;106434;-78
2022/12/08 14:02:38;;;;;;;25.00;15.20;;;;;;;3.47;80.47;99451.58;126576;1288;107437;-80
2022/12/08 14:05:42;;;;;;;23.90;14.50;;;;;;;3.39;80.57;99452.77;126716;1299;107385;-78
2022/12/08 14:08:51;;;;;;;25.50;16.40;;;;;;;3.31;80.62;99453.05;126797;1287;106673;-80
2022/12/08 14:11:57;;;;;;;39.80;24.60;;;;;;;3.26;80.74;99455.95;126734;1281;107584;-79
2022/12/08 14:15:02;;;;;;;47.20;30.30;;;;;;;3.20;80.64;99457.15;126660;1288;107619;-79
2022/12/08 14:18:20;;;;;;;33.00;19.20;;;;;;;3.14;80.66;99454.80;126764;1290;107710;-78